Terminal Aerodrome Forecast
Issued by NWS

Home | Current Version | Previous Version | Graphics & Text | Print | Product List | Glossary On
Versions: 1 2 3 4 5 6 7 8 9 10 11 12 13 14 15 16 17
000
FTUS41 KCLE 212102 AAB
TAFFDY
TAF AMD
KFDY 212102Z 2121/2218 05010KT P6SM OVC050
      TEMPO 2122/2201 1SM TSRA OVC025CB
     FM220200 12005KT 5SM -SHRA OVC020
     FM220500 14005KT 5SM BR VCSH OVC020
     FM221000 18005KT 3SM BR SCT008 OVC012=

USA.gov is the U.S. government's official web portal to all federal, state and local government web resources and services.